JBU85 KBUF-KMCO
Flight info
| Callsign | JBU85 |
|---|---|
| Flight time | 2h 8m |
| Altitude | 36000 |
| Route | JHW RICCS Q103 SLOJO/N0449F370 EFFAY/N0451F360 Q83 ROYCO Q85 LPERD GTOUT1 |
| Aircraft | A320/M-SDE3FGHIRWY/LB1 |
Departure
| Time | 2026-04-24 19:31 |
|---|---|
| Airport | Buffalo Niagara International Airport (KBUF) |
Arrival
| Time | 2026-04-24 21:39 |
|---|---|
| Airport | Orlando International Airport (KMCO) |
| Time | Latitude | Longitude | Altitude | Speed | Heading |
|---|---|---|---|---|---|
| 2026-04-24 19:10 | 42.93659 | -78.73031 | 704 ft | 0 kts | 131° |
| 2026-04-24 19:18 | 42.93658 | -78.73031 | 704 ft | 0 kts | 130° |
| 2026-04-24 19:19 | 42.93658 | -78.73030 | 704 ft | 0 kts | 129° |
| 2026-04-24 19:20 | 42.93665 | -78.73045 | 704 ft | 2 kts | 128° |
| 2026-04-24 19:20 | 42.93669 | -78.73051 | 704 ft | 1 kts | 134° |
| 2026-04-24 19:20 | 42.93679 | -78.73066 | 705 ft | 2 kts | 130° |
| 2026-04-24 19:20 | 42.93689 | -78.73080 | 705 ft | 2 kts | 161° |
| 2026-04-24 19:21 | 42.93704 | -78.73080 | 705 ft | 2 kts | 207° |
| 2026-04-24 19:21 | 42.93710 | -78.73074 | 705 ft | 1 kts | 231° |
| 2026-04-24 19:21 | 42.93714 | -78.73069 | 705 ft | 0 kts | 226° |
| 2026-04-24 19:24 | 42.93697 | -78.73093 | 705 ft | 9 kts | 226° |
| 2026-04-24 19:25 | 42.93642 | -78.73169 | 703 ft | 12 kts | 223° |
| 2026-04-24 19:25 | 42.93568 | -78.73260 | 700 ft | 16 kts | 221° |
| 2026-04-24 19:25 | 42.93492 | -78.73356 | 697 ft | 16 kts | 223° |
| 2026-04-24 19:25 | 42.93435 | -78.73427 | 696 ft | 6 kts | 221° |
| 2026-04-24 19:26 | 42.93378 | -78.73526 | 695 ft | 17 kts | 256° |
| 2026-04-24 19:26 | 42.93332 | -78.73682 | 691 ft | 19 kts | 230° |
| 2026-04-24 19:26 | 42.93253 | -78.73781 | 689 ft | 15 kts | 222° |
| 2026-04-24 19:26 | 42.93176 | -78.73885 | 687 ft | 13 kts | 224° |
| 2026-04-24 19:27 | 42.93117 | -78.73961 | 684 ft | 12 kts | 222° |
| 2026-04-24 19:27 | 42.93089 | -78.74002 | 682 ft | 3 kts | 253° |
| 2026-04-24 19:27 | 42.93083 | -78.74041 | 681 ft | 0 kts | 270° |
| 2026-04-24 19:28 | 42.93083 | -78.74042 | 681 ft | 0 kts | 270° |
| 2026-04-24 19:29 | 42.93127 | -78.74146 | 683 ft | 6 kts | 357° |
| 2026-04-24 19:29 | 42.93146 | -78.74135 | 684 ft | 0 kts | 37° |
| 2026-04-24 19:30 | 42.93158 | -78.74122 | 684 ft | 18 kts | 38° |
| 2026-04-24 19:31 | 42.93436 | -78.73754 | 695 ft | 90 kts | 44° |
| 2026-04-24 19:31 | 42.94046 | -78.72956 | 709 ft | 149 kts | 45° |
| 2026-04-24 19:31 | 42.94849 | -78.71900 | 1087 ft | 166 kts | 45° |
| 2026-04-24 19:31 | 42.95665 | -78.70842 | 1903 ft | 161 kts | 46° |
| 2026-04-24 19:32 | 42.96432 | -78.69775 | 2625 ft | 162 kts | 57° |
| 2026-04-24 19:32 | 42.96759 | -78.68270 | 3081 ft | 177 kts | 90° |
| 2026-04-24 19:32 | 42.96393 | -78.66597 | 3516 ft | 197 kts | 121° |
| 2026-04-24 19:32 | 42.95318 | -78.65341 | 3822 ft | 223 kts | 158° |
| 2026-04-24 19:33 | 42.93723 | -78.65241 | 4227 ft | 245 kts | 199° |
| 2026-04-24 19:33 | 42.92309 | -78.66612 | 4697 ft | 260 kts | 237° |
| 2026-04-24 19:33 | 42.91751 | -78.68924 | 5309 ft | 265 kts | 273° |
| 2026-04-24 19:33 | 42.92072 | -78.71337 | 6248 ft | 262 kts | 285° |
| 2026-04-24 19:34 | 42.92168 | -78.73779 | 7182 ft | 266 kts | 258° |
| 2026-04-24 19:34 | 42.91259 | -78.75955 | 8025 ft | 277 kts | 226° |
| 2026-04-24 19:34 | 42.89523 | -78.77193 | 8787 ft | 293 kts | 194° |
| 2026-04-24 19:34 | 42.87486 | -78.77360 | 9558 ft | 300 kts | 185° |
| 2026-04-24 19:35 | 42.85399 | -78.77577 | 10271 ft | 304 kts | 191° |
| 2026-04-24 19:35 | 42.83270 | -78.78122 | 10754 ft | 317 kts | 198° |
| 2026-04-24 19:35 | 42.81121 | -78.78944 | 11106 ft | 333 kts | 201° |
| 2026-04-24 19:35 | 42.78877 | -78.79978 | 11468 ft | 349 kts | 203° |
| 2026-04-24 19:36 | 42.76565 | -78.81140 | 12047 ft | 357 kts | 205° |
| 2026-04-24 19:36 | 42.74247 | -78.82349 | 12803 ft | 360 kts | 205° |
| 2026-04-24 19:36 | 42.71932 | -78.83581 | 13523 ft | 363 kts | 205° |
| 2026-04-24 19:36 | 42.69581 | -78.84842 | 14191 ft | 366 kts | 205° |
| 2026-04-24 19:37 | 42.67207 | -78.86123 | 14817 ft | 370 kts | 205° |
| 2026-04-24 19:37 | 42.64807 | -78.87419 | 15433 ft | 376 kts | 206° |
| 2026-04-24 19:37 | 42.62367 | -78.88741 | 16035 ft | 380 kts | 206° |
| 2026-04-24 19:37 | 42.59899 | -78.90075 | 16596 ft | 386 kts | 206° |
| 2026-04-24 19:38 | 42.57390 | -78.91432 | 17141 ft | 390 kts | 205° |
| 2026-04-24 19:38 | 42.54866 | -78.92796 | 17714 ft | 395 kts | 205° |
| 2026-04-24 19:38 | 42.52311 | -78.94176 | 18251 ft | 400 kts | 205° |
| 2026-04-24 19:38 | 42.49726 | -78.95569 | 18819 ft | 404 kts | 205° |
| 2026-04-24 19:39 | 42.47100 | -78.96983 | 19350 ft | 408 kts | 205° |
| 2026-04-24 19:39 | 42.44465 | -78.98400 | 19893 ft | 411 kts | 206° |
| 2026-04-24 19:39 | 42.41806 | -78.99829 | 20435 ft | 414 kts | 206° |
| 2026-04-24 19:39 | 42.39126 | -79.01269 | 20959 ft | 418 kts | 206° |
| 2026-04-24 19:40 | 42.36408 | -79.02728 | 21507 ft | 420 kts | 206° |
| 2026-04-24 19:40 | 42.33669 | -79.04198 | 21994 ft | 425 kts | 206° |
| 2026-04-24 19:40 | 42.30925 | -79.05667 | 22487 ft | 428 kts | 206° |
| 2026-04-24 19:40 | 42.28156 | -79.07149 | 22983 ft | 432 kts | 206° |
| 2026-04-24 19:41 | 42.25370 | -79.08639 | 23461 ft | 436 kts | 206° |
| 2026-04-24 19:41 | 42.22530 | -79.10160 | 23967 ft | 439 kts | 206° |
| 2026-04-24 19:41 | 42.19653 | -79.11581 | 24446 ft | 444 kts | 202° |
| 2026-04-24 19:41 | 42.16690 | -79.12786 | 24915 ft | 449 kts | 199° |
| 2026-04-24 19:42 | 42.13656 | -79.13774 | 25352 ft | 454 kts | 197° |
| 2026-04-24 19:42 | 42.10569 | -79.14725 | 25781 ft | 457 kts | 197° |
| 2026-04-24 19:42 | 42.07470 | -79.15672 | 26236 ft | 460 kts | 197° |
| 2026-04-24 19:42 | 42.04321 | -79.16636 | 26677 ft | 463 kts | 197° |
| 2026-04-24 19:43 | 42.01180 | -79.17598 | 27066 ft | 466 kts | 197° |
| 2026-04-24 19:43 | 41.98008 | -79.18571 | 27446 ft | 469 kts | 197° |
| 2026-04-24 19:43 | 41.94826 | -79.19546 | 27829 ft | 472 kts | 197° |
| 2026-04-24 19:43 | 41.91659 | -79.20520 | 28178 ft | 474 kts | 197° |
| 2026-04-24 19:44 | 41.88418 | -79.21516 | 28574 ft | 476 kts | 197° |
| 2026-04-24 19:44 | 41.85197 | -79.22501 | 29018 ft | 475 kts | 197° |
| 2026-04-24 19:44 | 41.81987 | -79.23485 | 29505 ft | 473 kts | 197° |
| 2026-04-24 19:44 | 41.78831 | -79.24448 | 29961 ft | 471 kts | 197° |
| 2026-04-24 19:45 | 41.75638 | -79.25422 | 30373 ft | 470 kts | 197° |
| 2026-04-24 19:45 | 41.72433 | -79.26398 | 30778 ft | 469 kts | 197° |
| 2026-04-24 19:45 | 41.69302 | -79.27353 | 31157 ft | 468 kts | 197° |
| 2026-04-24 19:45 | 41.66103 | -79.28327 | 31536 ft | 467 kts | 197° |
| 2026-04-24 19:46 | 41.62946 | -79.29287 | 31908 ft | 466 kts | 197° |
| 2026-04-24 19:46 | 41.59825 | -79.30234 | 32268 ft | 465 kts | 197° |
| 2026-04-24 19:46 | 41.56682 | -79.31186 | 32633 ft | 464 kts | 197° |
| 2026-04-24 19:46 | 41.53509 | -79.32147 | 32995 ft | 463 kts | 197° |
| 2026-04-24 19:47 | 41.50394 | -79.33090 | 33333 ft | 462 kts | 198° |
| 2026-04-24 19:47 | 41.47271 | -79.34033 | 33668 ft | 460 kts | 198° |
| 2026-04-24 19:47 | 41.44155 | -79.34975 | 33998 ft | 459 kts | 198° |
| 2026-04-24 19:47 | 41.41071 | -79.35908 | 34316 ft | 459 kts | 198° |
| 2026-04-24 19:48 | 41.37949 | -79.36853 | 34594 ft | 460 kts | 198° |
| 2026-04-24 19:48 | 41.34832 | -79.37795 | 34846 ft | 461 kts | 198° |
| 2026-04-24 19:48 | 41.28547 | -79.39688 | 35346 ft | 463 kts | 198° |
| 2026-04-24 19:49 | 41.22297 | -79.41566 | 35822 ft | 464 kts | 198° |
| 2026-04-24 19:49 | 41.15997 | -79.43459 | 35855 ft | 465 kts | 198° |
| 2026-04-24 19:50 | 41.03401 | -79.47228 | 35854 ft | 465 kts | 198° |
| 2026-04-24 19:51 | 40.93946 | -79.50047 | 35851 ft | 465 kts | 198° |
| 2026-04-24 19:52 | 40.84610 | -79.52824 | 35851 ft | 465 kts | 198° |
| 2026-04-24 19:52 | 40.78329 | -79.54685 | 35851 ft | 465 kts | 197° |
| 2026-04-24 19:53 | 40.72010 | -79.56558 | 35849 ft | 465 kts | 197° |
| 2026-04-24 19:54 | 40.62587 | -79.59340 | 35854 ft | 465 kts | 197° |
| 2026-04-24 19:54 | 40.56253 | -79.61203 | 35857 ft | 465 kts | 197° |
| 2026-04-24 19:55 | 40.51036 | -79.62734 | 35863 ft | 465 kts | 197° |
| 2026-04-24 19:55 | 40.43671 | -79.64893 | 35868 ft | 465 kts | 197° |
| 2026-04-24 19:56 | 40.37357 | -79.66740 | 35868 ft | 465 kts | 196° |
| 2026-04-24 19:56 | 40.31054 | -79.68582 | 35867 ft | 465 kts | 196° |
| 2026-04-24 19:57 | 40.24775 | -79.70415 | 35866 ft | 465 kts | 196° |
| 2026-04-24 19:57 | 40.18476 | -79.72250 | 35867 ft | 464 kts | 196° |
| 2026-04-24 19:58 | 40.12162 | -79.74084 | 35870 ft | 464 kts | 196° |
| 2026-04-24 19:58 | 40.05886 | -79.75906 | 35872 ft | 464 kts | 196° |
| 2026-04-24 19:59 | 39.99597 | -79.77725 | 35874 ft | 464 kts | 196° |
| 2026-04-24 19:59 | 39.93274 | -79.79556 | 35879 ft | 465 kts | 196° |
| 2026-04-24 20:00 | 39.86986 | -79.81369 | 35884 ft | 464 kts | 196° |
| 2026-04-24 20:00 | 39.80667 | -79.83188 | 35885 ft | 464 kts | 196° |
| 2026-04-24 20:01 | 39.74361 | -79.85000 | 35897 ft | 464 kts | 196° |
| 2026-04-24 20:01 | 39.68059 | -79.86808 | 35898 ft | 464 kts | 196° |
| 2026-04-24 20:02 | 39.62839 | -79.88303 | 35898 ft | 464 kts | 196° |
| 2026-04-24 20:02 | 39.55486 | -79.90406 | 35892 ft | 464 kts | 195° |
| 2026-04-24 20:03 | 39.49198 | -79.92198 | 35892 ft | 464 kts | 195° |
| 2026-04-24 20:03 | 39.42899 | -79.93993 | 35889 ft | 464 kts | 195° |
| 2026-04-24 20:04 | 39.36596 | -79.95782 | 35886 ft | 464 kts | 195° |
| 2026-04-24 20:04 | 39.30285 | -79.97574 | 35878 ft | 464 kts | 195° |
| 2026-04-24 20:05 | 39.23977 | -79.99361 | 35876 ft | 464 kts | 195° |
| 2026-04-24 20:05 | 39.17703 | -80.01134 | 35888 ft | 464 kts | 195° |
| 2026-04-24 20:06 | 39.11397 | -80.02911 | 35890 ft | 464 kts | 195° |
| 2026-04-24 20:06 | 39.05082 | -80.04690 | 35902 ft | 464 kts | 195° |
| 2026-04-24 20:07 | 38.99865 | -80.06155 | 35908 ft | 464 kts | 195° |
| 2026-04-24 20:07 | 38.92477 | -80.08238 | 35918 ft | 464 kts | 197° |
| 2026-04-24 20:08 | 38.86282 | -80.10373 | 35926 ft | 463 kts | 198° |
| 2026-04-24 20:08 | 38.80072 | -80.12560 | 35922 ft | 463 kts | 198° |
| 2026-04-24 20:09 | 38.73864 | -80.14740 | 35928 ft | 463 kts | 198° |
| 2026-04-24 20:09 | 38.67697 | -80.16896 | 35930 ft | 463 kts | 198° |
| 2026-04-24 20:10 | 38.61480 | -80.19071 | 35932 ft | 464 kts | 198° |
| 2026-04-24 20:10 | 38.55268 | -80.21240 | 35929 ft | 464 kts | 198° |
| 2026-04-24 20:11 | 38.49028 | -80.23412 | 35930 ft | 464 kts | 198° |
| 2026-04-24 20:11 | 38.42798 | -80.25577 | 35936 ft | 464 kts | 198° |
| 2026-04-24 20:12 | 38.36599 | -80.27728 | 35943 ft | 463 kts | 198° |
| 2026-04-24 20:12 | 38.30386 | -80.29885 | 35956 ft | 463 kts | 198° |
| 2026-04-24 20:13 | 38.24194 | -80.32031 | 35966 ft | 464 kts | 198° |
| 2026-04-24 20:13 | 38.17980 | -80.34176 | 35967 ft | 464 kts | 198° |
| 2026-04-24 20:14 | 38.11740 | -80.36325 | 35958 ft | 464 kts | 198° |
| 2026-04-24 20:14 | 38.05507 | -80.38474 | 35947 ft | 464 kts | 197° |
| 2026-04-24 20:15 | 37.99307 | -80.40601 | 35948 ft | 464 kts | 197° |
| 2026-04-24 20:15 | 37.93076 | -80.42736 | 35945 ft | 464 kts | 197° |
| 2026-04-24 20:16 | 37.86849 | -80.44864 | 35945 ft | 463 kts | 197° |
| 2026-04-24 20:16 | 37.80633 | -80.46986 | 35946 ft | 464 kts | 197° |
| 2026-04-24 20:17 | 37.74412 | -80.49109 | 35941 ft | 464 kts | 197° |
| 2026-04-24 20:17 | 37.65080 | -80.52287 | 35940 ft | 464 kts | 197° |
| 2026-04-24 20:18 | 37.58861 | -80.54397 | 35941 ft | 463 kts | 197° |
| 2026-04-24 20:18 | 37.52642 | -80.56503 | 35948 ft | 463 kts | 197° |
| 2026-04-24 20:19 | 37.46458 | -80.58594 | 35947 ft | 463 kts | 197° |
| 2026-04-24 20:19 | 37.40222 | -80.60699 | 35945 ft | 463 kts | 198° |
| 2026-04-24 20:20 | 37.34018 | -80.62794 | 35945 ft | 463 kts | 198° |
| 2026-04-24 20:20 | 37.27803 | -80.64889 | 35948 ft | 463 kts | 197° |
| 2026-04-24 20:21 | 37.21582 | -80.66979 | 35956 ft | 463 kts | 197° |
| 2026-04-24 20:21 | 37.15355 | -80.69059 | 35946 ft | 463 kts | 195° |
| 2026-04-24 20:22 | 37.09040 | -80.70579 | 35945 ft | 464 kts | 188° |
| 2026-04-24 20:22 | 37.02601 | -80.71152 | 35942 ft | 465 kts | 181° |
| 2026-04-24 20:23 | 36.96143 | -80.71018 | 35945 ft | 465 kts | 180° |
| 2026-04-24 20:23 | 36.89675 | -80.70843 | 35948 ft | 464 kts | 180° |
| 2026-04-24 20:24 | 36.83257 | -80.70686 | 35957 ft | 464 kts | 180° |
| 2026-04-24 20:24 | 36.76819 | -80.70533 | 35961 ft | 464 kts | 180° |
| 2026-04-24 20:25 | 36.70340 | -80.70383 | 35955 ft | 463 kts | 180° |
| 2026-04-24 20:25 | 36.63921 | -80.70233 | 35947 ft | 463 kts | 180° |
| 2026-04-24 20:26 | 36.57489 | -80.70084 | 35936 ft | 463 kts | 180° |
| 2026-04-24 20:26 | 36.51044 | -80.69934 | 35926 ft | 463 kts | 180° |
| 2026-04-24 20:27 | 36.44622 | -80.69785 | 35918 ft | 463 kts | 180° |
| 2026-04-24 20:27 | 36.38150 | -80.69634 | 35916 ft | 463 kts | 180° |
| 2026-04-24 20:28 | 36.31754 | -80.69487 | 35905 ft | 463 kts | 180° |
| 2026-04-24 20:28 | 36.25284 | -80.69337 | 35897 ft | 462 kts | 180° |
| 2026-04-24 20:29 | 36.18894 | -80.69190 | 35890 ft | 462 kts | 180° |
| 2026-04-24 20:29 | 36.12471 | -80.69043 | 35882 ft | 462 kts | 180° |
| 2026-04-24 20:30 | 36.06040 | -80.68896 | 35878 ft | 462 kts | 180° |
| 2026-04-24 20:30 | 35.99630 | -80.68749 | 35874 ft | 462 kts | 180° |
| 2026-04-24 20:31 | 35.93201 | -80.68602 | 35877 ft | 461 kts | 180° |
| 2026-04-24 20:31 | 35.86795 | -80.68456 | 35884 ft | 461 kts | 180° |
| 2026-04-24 20:32 | 35.80363 | -80.68308 | 35888 ft | 461 kts | 180° |
| 2026-04-24 20:32 | 35.73963 | -80.68163 | 35892 ft | 461 kts | 180° |
| 2026-04-24 20:33 | 35.67581 | -80.68018 | 35892 ft | 461 kts | 180° |
| 2026-04-24 20:33 | 35.61171 | -80.67872 | 35897 ft | 460 kts | 180° |
| 2026-04-24 20:34 | 35.54765 | -80.67728 | 35898 ft | 460 kts | 180° |
| 2026-04-24 20:34 | 35.48388 | -80.67584 | 35900 ft | 460 kts | 180° |
| 2026-04-24 20:35 | 35.41991 | -80.67439 | 35900 ft | 460 kts | 180° |
| 2026-04-24 20:35 | 35.35564 | -80.67293 | 35903 ft | 460 kts | 180° |
| 2026-04-24 20:36 | 35.29178 | -80.67149 | 35899 ft | 459 kts | 180° |
| 2026-04-24 20:36 | 35.22783 | -80.67004 | 35896 ft | 459 kts | 180° |
| 2026-04-24 20:37 | 35.16419 | -80.66863 | 35894 ft | 459 kts | 180° |
| 2026-04-24 20:37 | 35.10010 | -80.66719 | 35891 ft | 459 kts | 180° |
| 2026-04-24 20:38 | 35.03627 | -80.66576 | 35888 ft | 459 kts | 180° |
| 2026-04-24 20:38 | 34.97271 | -80.66433 | 35887 ft | 459 kts | 180° |
| 2026-04-24 20:39 | 34.90868 | -80.66289 | 35881 ft | 458 kts | 180° |
| 2026-04-24 20:39 | 34.84497 | -80.66144 | 35879 ft | 458 kts | 180° |
| 2026-04-24 20:40 | 34.78131 | -80.66001 | 35877 ft | 458 kts | 180° |
| 2026-04-24 20:40 | 34.71765 | -80.65852 | 35876 ft | 458 kts | 179° |
| 2026-04-24 20:41 | 34.65403 | -80.65185 | 35876 ft | 459 kts | 173° |
| 2026-04-24 20:41 | 34.59167 | -80.63628 | 35869 ft | 459 kts | 166° |
| 2026-04-24 20:42 | 34.53056 | -80.61357 | 35866 ft | 459 kts | 163° |
| 2026-04-24 20:42 | 34.46995 | -80.59037 | 35868 ft | 459 kts | 163° |
| 2026-04-24 20:43 | 34.40874 | -80.56712 | 35872 ft | 459 kts | 163° |
| 2026-04-24 20:43 | 34.34784 | -80.54416 | 35878 ft | 458 kts | 165° |
| 2026-04-24 20:44 | 34.28587 | -80.52877 | 35884 ft | 457 kts | 175° |
| 2026-04-24 20:44 | 34.22252 | -80.52725 | 35883 ft | 454 kts | 186° |
| 2026-04-24 20:45 | 34.16068 | -80.53936 | 35888 ft | 451 kts | 195° |
| 2026-04-24 20:45 | 34.09982 | -80.55771 | 35889 ft | 451 kts | 196° |
| 2026-04-24 20:46 | 34.03895 | -80.57617 | 35893 ft | 451 kts | 195° |
| 2026-04-24 20:46 | 33.97814 | -80.59442 | 35895 ft | 451 kts | 195° |
| 2026-04-24 20:47 | 33.91738 | -80.61256 | 35891 ft | 451 kts | 195° |
| 2026-04-24 20:47 | 33.85648 | -80.63069 | 35892 ft | 450 kts | 195° |
| 2026-04-24 20:48 | 33.79565 | -80.64876 | 35889 ft | 450 kts | 195° |
| 2026-04-24 20:48 | 33.73522 | -80.66669 | 35888 ft | 450 kts | 195° |
| 2026-04-24 20:49 | 33.67425 | -80.68475 | 35882 ft | 450 kts | 195° |
| 2026-04-24 20:49 | 33.61364 | -80.70270 | 35882 ft | 450 kts | 195° |
| 2026-04-24 20:50 | 33.55289 | -80.72064 | 35886 ft | 451 kts | 195° |
| 2026-04-24 20:50 | 33.49191 | -80.73862 | 35885 ft | 450 kts | 195° |
| 2026-04-24 20:51 | 33.43099 | -80.75657 | 35887 ft | 450 kts | 195° |
| 2026-04-24 20:51 | 33.37021 | -80.77443 | 35890 ft | 450 kts | 195° |
| 2026-04-24 20:52 | 33.30956 | -80.79221 | 35893 ft | 450 kts | 195° |
| 2026-04-24 20:52 | 33.24902 | -80.80996 | 35889 ft | 449 kts | 195° |
| 2026-04-24 20:53 | 33.18835 | -80.82771 | 35881 ft | 450 kts | 195° |
| 2026-04-24 20:53 | 33.12757 | -80.84547 | 35884 ft | 450 kts | 195° |
| 2026-04-24 20:54 | 33.06690 | -80.86317 | 35882 ft | 450 kts | 195° |
| 2026-04-24 20:54 | 33.00602 | -80.88090 | 35886 ft | 449 kts | 195° |
| 2026-04-24 20:55 | 32.94546 | -80.89850 | 35888 ft | 448 kts | 195° |
| 2026-04-24 20:55 | 32.88514 | -80.91601 | 35889 ft | 449 kts | 195° |
| 2026-04-24 20:56 | 32.82439 | -80.93363 | 35889 ft | 449 kts | 195° |
| 2026-04-24 20:56 | 32.76351 | -80.95126 | 35893 ft | 449 kts | 195° |
| 2026-04-24 20:57 | 32.70296 | -80.96877 | 35898 ft | 449 kts | 195° |
| 2026-04-24 20:57 | 32.64233 | -80.98628 | 35903 ft | 448 kts | 195° |
| 2026-04-24 20:58 | 32.58193 | -81.00360 | 35907 ft | 448 kts | 194° |
| 2026-04-24 20:58 | 32.52018 | -81.01609 | 35905 ft | 450 kts | 188° |
| 2026-04-24 20:59 | 32.45738 | -81.02032 | 35910 ft | 452 kts | 182° |
| 2026-04-24 20:59 | 32.39485 | -81.02129 | 35912 ft | 452 kts | 182° |
| 2026-04-24 21:00 | 32.33205 | -81.02231 | 35920 ft | 451 kts | 182° |
| 2026-04-24 21:00 | 32.26888 | -81.02344 | 35915 ft | 451 kts | 182° |
| 2026-04-24 21:01 | 32.20613 | -81.02457 | 35919 ft | 451 kts | 182° |
| 2026-04-24 21:01 | 32.14365 | -81.02569 | 35920 ft | 451 kts | 182° |
| 2026-04-24 21:02 | 32.08070 | -81.02678 | 35923 ft | 451 kts | 182° |
| 2026-04-24 21:02 | 32.01812 | -81.02787 | 35924 ft | 451 kts | 182° |
| 2026-04-24 21:03 | 31.95532 | -81.02929 | 35928 ft | 451 kts | 183° |
| 2026-04-24 21:03 | 31.89255 | -81.03110 | 35935 ft | 451 kts | 183° |
| 2026-04-24 21:04 | 31.82991 | -81.03284 | 35936 ft | 451 kts | 183° |
| 2026-04-24 21:04 | 31.76744 | -81.03454 | 35940 ft | 450 kts | 183° |
| 2026-04-24 21:05 | 31.70469 | -81.03624 | 35938 ft | 451 kts | 183° |
| 2026-04-24 21:05 | 31.64225 | -81.04038 | 35941 ft | 449 kts | 189° |
| 2026-04-24 21:06 | 31.58131 | -81.05457 | 35937 ft | 447 kts | 198° |
| 2026-04-24 21:06 | 31.52307 | -81.07905 | 35936 ft | 445 kts | 206° |
| 2026-04-24 21:07 | 31.46769 | -81.11183 | 35930 ft | 444 kts | 210° |
| 2026-04-24 21:07 | 31.41323 | -81.14541 | 35920 ft | 446 kts | 210° |
| 2026-04-24 21:08 | 31.35829 | -81.17882 | 35911 ft | 447 kts | 209° |
| 2026-04-24 21:08 | 31.30252 | -81.21184 | 35912 ft | 447 kts | 209° |
| 2026-04-24 21:09 | 31.24691 | -81.24367 | 35915 ft | 447 kts | 205° |
| 2026-04-24 21:09 | 31.18778 | -81.26733 | 35919 ft | 450 kts | 196° |
| 2026-04-24 21:10 | 31.12597 | -81.28019 | 35921 ft | 452 kts | 187° |
| 2026-04-24 21:10 | 31.06326 | -81.28258 | 35916 ft | 453 kts | 182° |
| 2026-04-24 21:11 | 30.99998 | -81.28223 | 35912 ft | 453 kts | 182° |
| 2026-04-24 21:11 | 30.93694 | -81.28194 | 35909 ft | 453 kts | 182° |
| 2026-04-24 21:12 | 30.88470 | -81.28177 | 35914 ft | 453 kts | 182° |
| 2026-04-24 21:12 | 30.81133 | -81.28158 | 35915 ft | 453 kts | 182° |
| 2026-04-24 21:13 | 30.74816 | -81.28143 | 35916 ft | 453 kts | 182° |
| 2026-04-24 21:13 | 30.68518 | -81.28127 | 35924 ft | 453 kts | 182° |
| 2026-04-24 21:14 | 30.62257 | -81.28110 | 35720 ft | 447 kts | 182° |
| 2026-04-24 21:14 | 30.59135 | -81.28024 | 35095 ft | 446 kts | 179° |
| 2026-04-24 21:14 | 30.56064 | -81.27806 | 34360 ft | 446 kts | 178° |
| 2026-04-24 21:15 | 30.52958 | -81.27573 | 33619 ft | 447 kts | 178° |
| 2026-04-24 21:15 | 30.49877 | -81.27340 | 32838 ft | 449 kts | 178° |
| 2026-04-24 21:15 | 30.46723 | -81.27101 | 31994 ft | 452 kts | 178° |
| 2026-04-24 21:15 | 30.43604 | -81.26866 | 31122 ft | 456 kts | 178° |
| 2026-04-24 21:16 | 30.40445 | -81.26628 | 30221 ft | 460 kts | 178° |
| 2026-04-24 21:16 | 30.37250 | -81.26390 | 29312 ft | 463 kts | 178° |
| 2026-04-24 21:16 | 30.34027 | -81.26149 | 28591 ft | 461 kts | 178° |
| 2026-04-24 21:16 | 30.30838 | -81.25909 | 28042 ft | 456 kts | 178° |
| 2026-04-24 21:17 | 30.27715 | -81.25674 | 27470 ft | 452 kts | 178° |
| 2026-04-24 21:17 | 30.24565 | -81.25437 | 26848 ft | 449 kts | 178° |
| 2026-04-24 21:17 | 30.21477 | -81.25205 | 26266 ft | 445 kts | 178° |
| 2026-04-24 21:17 | 30.18394 | -81.24972 | 25677 ft | 441 kts | 178° |
| 2026-04-24 21:18 | 30.15362 | -81.24746 | 25090 ft | 438 kts | 178° |
| 2026-04-24 21:18 | 30.12322 | -81.24517 | 24520 ft | 434 kts | 179° |
| 2026-04-24 21:18 | 30.09347 | -81.24296 | 24233 ft | 431 kts | 179° |
| 2026-04-24 21:18 | 30.06344 | -81.24071 | 23972 ft | 431 kts | 179° |
| 2026-04-24 21:19 | 30.03350 | -81.23848 | 23716 ft | 430 kts | 179° |
| 2026-04-24 21:19 | 30.00352 | -81.23623 | 23455 ft | 428 kts | 179° |
| 2026-04-24 21:19 | 29.97415 | -81.23404 | 23201 ft | 427 kts | 179° |
| 2026-04-24 21:19 | 29.94451 | -81.23182 | 22944 ft | 426 kts | 179° |
| 2026-04-24 21:20 | 29.88555 | -81.22745 | 22444 ft | 423 kts | 179° |
| 2026-04-24 21:20 | 29.85631 | -81.22527 | 22197 ft | 422 kts | 179° |
| 2026-04-24 21:20 | 29.82711 | -81.22310 | 21950 ft | 420 kts | 179° |
| 2026-04-24 21:21 | 29.79775 | -81.22089 | 21708 ft | 418 kts | 179° |
| 2026-04-24 21:21 | 29.76875 | -81.21873 | 21457 ft | 416 kts | 179° |
| 2026-04-24 21:21 | 29.73976 | -81.21656 | 21197 ft | 415 kts | 179° |
| 2026-04-24 21:21 | 29.71120 | -81.21444 | 20944 ft | 413 kts | 179° |
| 2026-04-24 21:22 | 29.68234 | -81.21214 | 20693 ft | 411 kts | 178° |
| 2026-04-24 21:22 | 29.65406 | -81.20972 | 20440 ft | 410 kts | 178° |
| 2026-04-24 21:22 | 29.62550 | -81.20725 | 20168 ft | 408 kts | 178° |
| 2026-04-24 21:22 | 29.59738 | -81.20482 | 19868 ft | 407 kts | 178° |
| 2026-04-24 21:23 | 29.56936 | -81.20239 | 19434 ft | 405 kts | 178° |
| 2026-04-24 21:23 | 29.54117 | -81.19996 | 18955 ft | 401 kts | 178° |
| 2026-04-24 21:23 | 29.51358 | -81.19759 | 18484 ft | 398 kts | 178° |
| 2026-04-24 21:23 | 29.48586 | -81.19521 | 17998 ft | 396 kts | 178° |
| 2026-04-24 21:24 | 29.45863 | -81.19287 | 17510 ft | 393 kts | 178° |
| 2026-04-24 21:24 | 29.43126 | -81.19054 | 17023 ft | 391 kts | 178° |
| 2026-04-24 21:24 | 29.40443 | -81.18825 | 16541 ft | 389 kts | 178° |
| 2026-04-24 21:24 | 29.37748 | -81.18594 | 16053 ft | 386 kts | 178° |
| 2026-04-24 21:25 | 29.35072 | -81.18366 | 15565 ft | 384 kts | 178° |
| 2026-04-24 21:25 | 29.32425 | -81.18138 | 15159 ft | 378 kts | 178° |
| 2026-04-24 21:25 | 29.29833 | -81.17915 | 14847 ft | 369 kts | 178° |
| 2026-04-24 21:25 | 29.27301 | -81.17694 | 14457 ft | 364 kts | 178° |
| 2026-04-24 21:26 | 29.24795 | -81.17472 | 14023 ft | 360 kts | 178° |
| 2026-04-24 21:26 | 29.22287 | -81.17250 | 13581 ft | 357 kts | 178° |
| 2026-04-24 21:26 | 29.19830 | -81.16958 | 13138 ft | 355 kts | 173° |
| 2026-04-24 21:26 | 29.17441 | -81.16346 | 12736 ft | 352 kts | 165° |
| 2026-04-24 21:27 | 29.15132 | -81.15446 | 12335 ft | 350 kts | 161° |
| 2026-04-24 21:27 | 29.12848 | -81.14456 | 11906 ft | 347 kts | 161° |
| 2026-04-24 21:27 | 29.10625 | -81.13483 | 11550 ft | 342 kts | 161° |
| 2026-04-24 21:27 | 29.08420 | -81.12525 | 11382 ft | 330 kts | 161° |
| 2026-04-24 21:28 | 29.06298 | -81.11613 | 11268 ft | 317 kts | 161° |
| 2026-04-24 21:28 | 29.04277 | -81.10761 | 11146 ft | 306 kts | 162° |
| 2026-04-24 21:28 | 29.02272 | -81.09988 | 10809 ft | 304 kts | 163° |
| 2026-04-24 21:28 | 29.00237 | -81.09219 | 10438 ft | 304 kts | 163° |
| 2026-04-24 21:29 | 28.98250 | -81.08506 | 10083 ft | 302 kts | 167° |
| 2026-04-24 21:29 | 28.96205 | -81.08011 | 9730 ft | 299 kts | 174° |
| 2026-04-24 21:29 | 28.94143 | -81.07729 | 9399 ft | 296 kts | 176° |
| 2026-04-24 21:29 | 28.92105 | -81.07497 | 9058 ft | 294 kts | 177° |
| 2026-04-24 21:30 | 28.90055 | -81.07269 | 8714 ft | 291 kts | 178° |
| 2026-04-24 21:30 | 28.88069 | -81.07423 | 8349 ft | 284 kts | 200° |
| 2026-04-24 21:30 | 28.86335 | -81.08405 | 8020 ft | 276 kts | 217° |
| 2026-04-24 21:30 | 28.84790 | -81.09658 | 7783 ft | 269 kts | 218° |
| 2026-04-24 21:31 | 28.83291 | -81.10895 | 7521 ft | 264 kts | 218° |
| 2026-04-24 21:31 | 28.81804 | -81.12105 | 7282 ft | 259 kts | 218° |
| 2026-04-24 21:31 | 28.80351 | -81.13271 | 7140 ft | 248 kts | 217° |
| 2026-04-24 21:31 | 28.78972 | -81.14368 | 7060 ft | 241 kts | 217° |
| 2026-04-24 21:32 | 28.77592 | -81.15466 | 6978 ft | 242 kts | 217° |
| 2026-04-24 21:32 | 28.76253 | -81.16623 | 6964 ft | 240 kts | 223° |
| 2026-04-24 21:32 | 28.75029 | -81.17921 | 7005 ft | 241 kts | 225° |
| 2026-04-24 21:32 | 28.73799 | -81.19199 | 6992 ft | 237 kts | 224° |
| 2026-04-24 21:33 | 28.72580 | -81.20454 | 6678 ft | 238 kts | 224° |
| 2026-04-24 21:33 | 28.71752 | -81.21303 | 6444 ft | 238 kts | 224° |
| 2026-04-24 21:33 | 28.70109 | -81.22974 | 5936 ft | 236 kts | 223° |
| 2026-04-24 21:33 | 28.68892 | -81.24209 | 5484 ft | 236 kts | 223° |
| 2026-04-24 21:34 | 28.67676 | -81.25438 | 5020 ft | 236 kts | 222° |
| 2026-04-24 21:34 | 28.66456 | -81.26671 | 4574 ft | 235 kts | 222° |
| 2026-04-24 21:34 | 28.65231 | -81.27902 | 4190 ft | 231 kts | 218° |
| 2026-04-24 21:34 | 28.63802 | -81.28670 | 3650 ft | 231 kts | 186° |
| 2026-04-24 21:35 | 28.62205 | -81.28668 | 3181 ft | 230 kts | 174° |
| 2026-04-24 21:35 | 28.60640 | -81.28516 | 2962 ft | 218 kts | 174° |
| 2026-04-24 21:35 | 28.59214 | -81.28432 | 2920 ft | 193 kts | 176° |
| 2026-04-24 21:35 | 28.57914 | -81.28398 | 2671 ft | 179 kts | 176° |
| 2026-04-24 21:36 | 28.56715 | -81.28384 | 2425 ft | 168 kts | 176° |
| 2026-04-24 21:36 | 28.55575 | -81.28378 | 2180 ft | 158 kts | 176° |
| 2026-04-24 21:36 | 28.54504 | -81.28364 | 1958 ft | 151 kts | 175° |
| 2026-04-24 21:36 | 28.53441 | -81.28350 | 1765 ft | 150 kts | 175° |
| 2026-04-24 21:37 | 28.52414 | -81.28340 | 1584 ft | 145 kts | 175° |
| 2026-04-24 21:37 | 28.51423 | -81.28333 | 1392 ft | 139 kts | 175° |
| 2026-04-24 21:37 | 28.50463 | -81.28322 | 1227 ft | 138 kts | 176° |
| 2026-04-24 21:37 | 28.49493 | -81.28311 | 1058 ft | 138 kts | 176° |
| 2026-04-24 21:38 | 28.48523 | -81.28306 | 885 ft | 138 kts | 178° |
| 2026-04-24 21:38 | 28.47568 | -81.28320 | 710 ft | 137 kts | 178° |
| 2026-04-24 21:38 | 28.46601 | -81.28300 | 536 ft | 137 kts | 176° |
| 2026-04-24 21:38 | 28.45651 | -81.28265 | 368 ft | 137 kts | 179° |
| 2026-04-24 21:39 | 28.44696 | -81.28254 | 179 ft | 135 kts | 180° |
| 2026-04-24 21:39 | 28.43778 | -81.28256 | 88 ft | 122 kts | 181° |
| 2026-04-24 21:39 | 28.43098 | -81.28249 | 87 ft | 72 kts | 181° |
| 2026-04-24 21:39 | 28.42754 | -81.28235 | 87 ft | 38 kts | 179° |
| 2026-04-24 21:40 | 28.42553 | -81.28310 | 87 ft | 28 kts | 236° |
| 2026-04-24 21:40 | 28.42471 | -81.28529 | 84 ft | 28 kts | 247° |
| 2026-04-24 21:40 | 28.42400 | -81.28740 | 84 ft | 29 kts | 251° |
| 2026-04-24 21:40 | 28.42337 | -81.28958 | 84 ft | 28 kts | 252° |
| 2026-04-24 21:41 | 28.42296 | -81.29172 | 84 ft | 26 kts | 280° |
| 2026-04-24 21:41 | 28.42365 | -81.29349 | 87 ft | 24 kts | 272° |
| 2026-04-24 21:41 | 28.42373 | -81.29549 | 87 ft | 26 kts | 294° |
| 2026-04-24 21:41 | 28.42469 | -81.29723 | 87 ft | 26 kts | 291° |
| 2026-04-24 21:42 | 28.42588 | -81.29833 | 87 ft | 18 kts | 294° |
| 2026-04-24 21:42 | 28.42625 | -81.29945 | 87 ft | 8 kts | 321° |
| 2026-04-24 21:42 | 28.42622 | -81.29999 | 88 ft | 4 kts | 242° |
| 2026-04-24 21:42 | 28.42617 | -81.30012 | 88 ft | 0 kts | 242° |